San Bruno, CA

9:24 PM PDT on June 02, 2015 (GMT -0700)
bel air | | Change Station
CLOSE
Current Station
Personal Weather Station
Location: San Bruno, CA
Elevation: 7 ft
Nearby Weather Stations

Elev 7 ft 37.63 °N, 122.41 °W | Updated 1 minute ago

Mostly Cloudy
Mostly Cloudy
56.3 °F
Feels Like 56.3 °F
N
9.9
Wind Variable Wind from North

Today
High -- | Low -- °F
--% Chance of Precip.
Yesterday
High -- | Low -- °F
Precip. -- in
5:49 AM 8:26 PM
Full, 100% visible
Pressure 29.98 in
Visibility 10.0 miles
Clouds Few 800 ft
Scattered Clouds 15000 ft
Mostly Cloudy 20000 ft
Dew Point 53 °F
Humidity 88%
Rainfall 0.00 in
Snow Depth Not available.
UV 0 out of 12
Pollen 5.80 out of 12
Air Quality Not available.
Flu Activity Sporadic
METAR KSFO 030356Z 27007KT 10SM FEW008 SCT150 BKN200 14/10 A2998 RMK AO2 SLP151 T01440100

More Conditions Fewer Conditions

Pressure 29.98 in
Visibility 10.0 miles
Clouds Few 800 ft
Scattered Clouds 15000 ft
Mostly Cloudy 20000 ft
Dew Point 53 °F
Humidity 88%
Rainfall 0.00 in
Snow Depth Not available.
UV 0 out of 12
Pollen 5.80 out of 12
Air Quality Not available.
Flu Activity Sporadic
METAR KSFO 030356Z 27007KT 10SM FEW008 SCT150 BKN200 14/10 A2998 RMK AO2 SLP151 T01440100

More Conditions Fewer Conditions

10-Day Weather Forecast

×

Almanac

Astronomy

Jun. 02, 2015 Rise Set
Actual Time
Civil Twilight
Nautical Twilight
Astronomical Twilight
Moon
Length of Visible Light
Length of Day
Tomorrow will be .
, % of the Moon is Illuminated

Today's Extremes

State Highs State Lows

Community

WunderPhotos

Upload Photos

1,826,164 photos uploaded!

WunderBlogs® & News

Nearby

Air Quality

  Air Quality AQ Index Pollutant
Not available.

Snow Depth

Station Depth Elevation

Earthquake Activity

City Distance Mag. Time & Date
Minimum magnitude displayed is 2.5.

Coastal Water Temperatures

Place Temperature

Stations

Nearby Weather Stations

Station Location Temp. Windchill Dew Point Humidity Wind Precip. Elev Updated Type